sensor_id;sensor_type;location;lat;lon;timestamp;temperature;humidity
25718;DHT22;13574;52.040;5.692;2023-05-01T00:00:40;14.70;96.40
25718;DHT22;13574;52.040;5.692;2023-05-01T00:03:06;14.50;96.50
25718;DHT22;13574;52.040;5.692;2023-05-01T00:05:32;14.70;96.50
25718;DHT22;13574;52.040;5.692;2023-05-01T00:07:57;14.40;96.80
25718;DHT22;13574;52.040;5.692;2023-05-01T00:10:23;14.60;96.80
25718;DHT22;13574;52.040;5.692;2023-05-01T00:12:49;14.50;96.90
25718;DHT22;13574;52.040;5.692;2023-05-01T00:15:15;14.50;97.00
25718;DHT22;13574;52.040;5.692;2023-05-01T00:17:41;14.40;97.00
25718;DHT22;13574;52.040;5.692;2023-05-01T00:20:07;14.30;97.10
25718;DHT22;13574;52.040;5.692;2023-05-01T00:22:33;14.40;97.00
25718;DHT22;13574;52.040;5.692;2023-05-01T00:24:58;14.20;97.20
25718;DHT22;13574;52.040;5.692;2023-05-01T00:27:24;14.10;97.10
25718;DHT22;13574;52.040;5.692;2023-05-01T00:29:50;14.10;97.20
25718;DHT22;13574;52.040;5.692;2023-05-01T00:32:15;14.00;97.40
25718;DHT22;13574;52.040;5.692;2023-05-01T00:34:42;14.10;97.20
25718;DHT22;13574;52.040;5.692;2023-05-01T00:37:10;13.90;97.40
25718;DHT22;13574;52.040;5.692;2023-05-01T00:39:36;13.90;97.30
25718;DHT22;13574;52.040;5.692;2023-05-01T00:42:02;14.00;97.20
25718;DHT22;13574;52.040;5.692;2023-05-01T00:44:28;14.10;97.00
25718;DHT22;13574;52.040;5.692;2023-05-01T00:46:53;13.80;97.70
25718;DHT22;13574;52.040;5.692;2023-05-01T00:49:20;13.90;97.70
25718;DHT22;13574;52.040;5.692;2023-05-01T00:51:48;14.10;97.50
25718;DHT22;13574;52.040;5.692;2023-05-01T00:54:14;14.10;97.50
25718;DHT22;13574;52.040;5.692;2023-05-01T00:56:40;14.00;97.30
25718;DHT22;13574;52.040;5.692;2023-05-01T00:59:06;14.10;97.40
25718;DHT22;13574;52.040;5.692;2023-05-01T01:01:32;13.70;97.30
25718;DHT22;13574;52.040;5.692;2023-05-01T01:03:58;13.90;97.50
25718;DHT22;13574;52.040;5.692;2023-05-01T01:06:47;13.90;97.40
25718;DHT22;13574;52.040;5.692;2023-05-01T01:15:01;14.00;97.20
25718;DHT22;13574;52.040;5.692;2023-05-01T01:26:03;13.70;97.50
25718;DHT22;13574;52.040;5.692;2023-05-01T01:34:43;13.70;97.30
25718;DHT22;13574;52.040;5.692;2023-05-01T01:37:23;13.80;97.60
25718;DHT22;13574;52.040;5.692;2023-05-01T01:39:57;13.70;97.70
25718;DHT22;13574;52.040;5.692;2023-05-01T01:42:30;13.60;97.70
25718;DHT22;13574;52.040;5.692;2023-05-01T01:45:02;13.70;97.70
25718;DHT22;13574;52.040;5.692;2023-05-01T01:47:31;13.90;97.50
25718;DHT22;13574;52.040;5.692;2023-05-01T01:50:02;13.90;97.40
25718;DHT22;13574;52.040;5.692;2023-05-01T01:52:30;13.90;97.70
25718;DHT22;13574;52.040;5.692;2023-05-01T01:55:10;13.80;97.50
25718;DHT22;13574;52.040;5.692;2023-05-01T01:57:37;13.90;97.70
25718;DHT22;13574;52.040;5.692;2023-05-01T02:00:06;13.90;97.60
25718;DHT22;13574;52.040;5.692;2023-05-01T02:02:36;14.00;97.40
25718;DHT22;13574;52.040;5.692;2023-05-01T02:05:06;14.10;97.40
25718;DHT22;13574;52.040;5.692;2023-05-01T02:07:32;14.10;97.50
25718;DHT22;13574;52.040;5.692;2023-05-01T02:10:00;14.10;97.40
25718;DHT22;13574;52.040;5.692;2023-05-01T02:12:27;14.10;97.10
25718;DHT22;13574;52.040;5.692;2023-05-01T02:14:53;14.10;97.10
25718;DHT22;13574;52.040;5.692;2023-05-01T02:17:20;14.20;96.90
25718;DHT22;13574;52.040;5.692;2023-05-01T02:19:47;14.10;97.20
25718;DHT22;13574;52.040;5.692;2023-05-01T02:22:15;14.20;96.90
25718;DHT22;13574;52.040;5.692;2023-05-01T02:24:42;14.10;96.80
25718;DHT22;13574;52.040;5.692;2023-05-01T02:27:16;14.10;97.10
25718;DHT22;13574;52.040;5.692;2023-05-01T02:29:44;14.10;97.10
25718;DHT22;13574;52.040;5.692;2023-05-01T02:32:09;14.00;97.20
25718;DHT22;13574;52.040;5.692;2023-05-01T02:34:35;14.10;96.90
25718;DHT22;13574;52.040;5.692;2023-05-01T02:37:05;14.10;96.80
25718;DHT22;13574;52.040;5.692;2023-05-01T02:39:32;14.10;97.00
25718;DHT22;13574;52.040;5.692;2023-05-01T02:41:59;14.10;97.10
25718;DHT22;13574;52.040;5.692;2023-05-01T02:44:36;14.00;97.10
25718;DHT22;13574;52.040;5.692;2023-05-01T02:47:04;14.00;96.90
25718;DHT22;13574;52.040;5.692;2023-05-01T02:49:31;14.10;96.50
25718;DHT22;13574;52.040;5.692;2023-05-01T02:51:57;14.10;96.50
25718;DHT22;13574;52.040;5.692;2023-05-01T02:54:24;14.00;96.60
25718;DHT22;13574;52.040;5.692;2023-05-01T02:56:50;14.10;96.60
25718;DHT22;13574;52.040;5.692;2023-05-01T02:59:16;13.90;96.60
25718;DHT22;13574;52.040;5.692;2023-05-01T03:01:42;13.90;96.60
25718;DHT22;13574;52.040;5.692;2023-05-01T03:04:08;13.80;96.70
25718;DHT22;13574;52.040;5.692;2023-05-01T03:06:33;13.70;96.90
25718;DHT22;13574;52.040;5.692;2023-05-01T03:08:59;13.80;96.80
25718;DHT22;13574;52.040;5.692;2023-05-01T03:11:25;13.90;96.60
25718;DHT22;13574;52.040;5.692;2023-05-01T03:13:51;13.80;96.60
25718;DHT22;13574;52.040;5.692;2023-05-01T03:16:17;13.80;96.70
25718;DHT22;13574;52.040;5.692;2023-05-01T03:18:42;13.70;96.90
25718;DHT22;13574;52.040;5.692;2023-05-01T03:21:08;13.60;97.10
25718;DHT22;13574;52.040;5.692;2023-05-01T03:23:34;13.60;97.00
25718;DHT22;13574;52.040;5.692;2023-05-01T03:26:00;13.80;96.90
25718;DHT22;13574;52.040;5.692;2023-05-01T03:28:26;13.80;96.70
25718;DHT22;13574;52.040;5.692;2023-05-01T03:30:52;13.90;96.60
25718;DHT22;13574;52.040;5.692;2023-05-01T03:33:17;13.90;96.50
25718;DHT22;13574;52.040;5.692;2023-05-01T03:35:43;13.80;96.60
25718;DHT22;13574;52.040;5.692;2023-05-01T03:38:09;13.90;96.90
25718;DHT22;13574;52.040;5.692;2023-05-01T03:40:34;13.90;97.10
25718;DHT22;13574;52.040;5.692;2023-05-01T03:43:00;14.00;96.90
25718;DHT22;13574;52.040;5.692;2023-05-01T03:45:26;13.90;97.10
25718;DHT22;13574;52.040;5.692;2023-05-01T03:47:51;14.20;96.50
25718;DHT22;13574;52.040;5.692;2023-05-01T03:50:17;14.40;96.50
25718;DHT22;13574;52.040;5.692;2023-05-01T03:52:43;14.50;96.40
25718;DHT22;13574;52.040;5.692;2023-05-01T03:55:09;14.50;96.40
25718;DHT22;13574;52.040;5.692;2023-05-01T03:57:34;14.60;96.00
25718;DHT22;13574;52.040;5.692;2023-05-01T04:00:01;14.50;96.20
25718;DHT22;13574;52.040;5.692;2023-05-01T04:02:27;14.50;96.10
25718;DHT22;13574;52.040;5.692;2023-05-01T04:04:53;14.50;95.90
25718;DHT22;13574;52.040;5.692;2023-05-01T04:07:19;14.20;96.30
25718;DHT22;13574;52.040;5.692;2023-05-01T04:09:44;14.20;96.50
25718;DHT22;13574;52.040;5.692;2023-05-01T04:12:10;14.20;96.50
25718;DHT22;13574;52.040;5.692;2023-05-01T04:14:36;14.30;96.60
25718;DHT22;13574;52.040;5.692;2023-05-01T04:17:02;14.30;96.50
25718;DHT22;13574;52.040;5.692;2023-05-01T04:19:28;14.40;96.40
25718;DHT22;13574;52.040;5.692;2023-05-01T04:21:53;14.30;96.30
25718;DHT22;13574;52.040;5.692;2023-05-01T04:24:19;14.30;96.40
25718;DHT22;13574;52.040;5.692;2023-05-01T04:26:45;14.30;96.30
25718;DHT22;13574;52.040;5.692;2023-05-01T04:29:10;14.40;96.10
25718;DHT22;13574;52.040;5.692;2023-05-01T04:31:36;14.50;96.00
25718;DHT22;13574;52.040;5.692;2023-05-01T04:34:02;14.40;96.00
25718;DHT22;13574;52.040;5.692;2023-05-01T04:36:28;14.40;96.40
25718;DHT22;13574;52.040;5.692;2023-05-01T04:38:54;14.20;96.30
25718;DHT22;13574;52.040;5.692;2023-05-01T04:41:19;14.10;96.60
25718;DHT22;13574;52.040;5.692;2023-05-01T04:43:45;14.00;96.70
25718;DHT22;13574;52.040;5.692;2023-05-01T04:46:11;13.90;96.90
25718;DHT22;13574;52.040;5.692;2023-05-01T04:48:37;14.20;96.60
25718;DHT22;13574;52.040;5.692;2023-05-01T04:51:02;14.30;96.70
25718;DHT22;13574;52.040;5.692;2023-05-01T04:53:28;14.30;96.70
25718;DHT22;13574;52.040;5.692;2023-05-01T04:55:54;14.50;96.60
25718;DHT22;13574;52.040;5.692;2023-05-01T04:58:20;14.50;96.40
25718;DHT22;13574;52.040;5.692;2023-05-01T05:00:45;14.50;96.40
25718;DHT22;13574;52.040;5.692;2023-05-01T05:03:11;14.60;96.60
25718;DHT22;13574;52.040;5.692;2023-05-01T05:05:37;14.70;96.30
25718;DHT22;13574;52.040;5.692;2023-05-01T05:08:02;14.70;96.50
25718;DHT22;13574;52.040;5.692;2023-05-01T05:10:28;14.90;96.20
25718;DHT22;13574;52.040;5.692;2023-05-01T05:12:54;14.90;96.20
25718;DHT22;13574;52.040;5.692;2023-05-01T05:15:20;14.70;96.20
25718;DHT22;13574;52.040;5.692;2023-05-01T05:17:46;14.80;96.50
25718;DHT22;13574;52.040;5.692;2023-05-01T05:20:11;15.00;96.00
25718;DHT22;13574;52.040;5.692;2023-05-01T05:22:37;14.90;96.60
25718;DHT22;13574;52.040;5.692;2023-05-01T05:25:03;14.90;96.50
25718;DHT22;13574;52.040;5.692;2023-05-01T05:27:31;14.70;96.40
25718;DHT22;13574;52.040;5.692;2023-05-01T05:30:01;14.60;96.40
25718;DHT22;13574;52.040;5.692;2023-05-01T05:32:27;14.90;96.20
25718;DHT22;13574;52.040;5.692;2023-05-01T05:34:53;14.90;96.20
25718;DHT22;13574;52.040;5.692;2023-05-01T05:37:19;14.90;96.10
25718;DHT22;13574;52.040;5.692;2023-05-01T05:39:45;14.90;96.20
25718;DHT22;13574;52.040;5.692;2023-05-01T05:42:10;14.90;96.10
25718;DHT22;13574;52.040;5.692;2023-05-01T05:44:36;15.00;95.90
25718;DHT22;13574;52.040;5.692;2023-05-01T05:47:01;14.80;96.10
25718;DHT22;13574;52.040;5.692;2023-05-01T05:49:27;14.40;96.60
25718;DHT22;13574;52.040;5.692;2023-05-01T05:51:53;14.40;96.70
25718;DHT22;13574;52.040;5.692;2023-05-01T05:54:18;14.10;97.20
25718;DHT22;13574;52.040;5.692;2023-05-01T05:56:44;14.20;97.20
25718;DHT22;13574;52.040;5.692;2023-05-01T05:59:10;14.30;97.20
25718;DHT22;13574;52.040;5.692;2023-05-01T06:01:35;14.30;97.30
25718;DHT22;13574;52.040;5.692;2023-05-01T06:04:02;14.70;97.20
25718;DHT22;13574;52.040;5.692;2023-05-01T06:06:28;14.90;96.60
25718;DHT22;13574;52.040;5.692;2023-05-01T06:08:53;15.00;96.40
25718;DHT22;13574;52.040;5.692;2023-05-01T06:11:19;15.00;96.40
25718;DHT22;13574;52.040;5.692;2023-05-01T06:13:46;15.10;96.40
25718;DHT22;13574;52.040;5.692;2023-05-01T06:16:11;15.40;96.10
25718;DHT22;13574;52.040;5.692;2023-05-01T06:18:37;15.20;96.20
25718;DHT22;13574;52.040;5.692;2023-05-01T06:21:03;15.20;96.60
25718;DHT22;13574;52.040;5.692;2023-05-01T06:23:29;15.20;96.70
25718;DHT22;13574;52.040;5.692;2023-05-01T06:25:56;15.20;96.50
25718;DHT22;13574;52.040;5.692;2023-05-01T06:28:21;15.50;96.30
25718;DHT22;13574;52.040;5.692;2023-05-01T06:30:47;15.40;96.20
25718;DHT22;13574;52.040;5.692;2023-05-01T06:33:13;15.70;95.90
25718;DHT22;13574;52.040;5.692;2023-05-01T06:35:39;15.70;95.70
25718;DHT22;13574;52.040;5.692;2023-05-01T06:38:05;15.60;95.90
25718;DHT22;13574;52.040;5.692;2023-05-01T06:40:31;15.70;96.00
25718;DHT22;13574;52.040;5.692;2023-05-01T06:43:02;15.80;96.10
25718;DHT22;13574;52.040;5.692;2023-05-01T06:45:28;15.90;95.90
25718;DHT22;13574;52.040;5.692;2023-05-01T06:47:54;15.90;95.90
25718;DHT22;13574;52.040;5.692;2023-05-01T06:50:19;15.80;96.10
25718;DHT22;13574;52.040;5.692;2023-05-01T06:52:45;15.80;96.20
25718;DHT22;13574;52.040;5.692;2023-05-01T06:55:11;15.90;96.20
25718;DHT22;13574;52.040;5.692;2023-05-01T06:57:37;16.10;96.00
25718;DHT22;13574;52.040;5.692;2023-05-01T07:00:05;16.20;95.90
25718;DHT22;13574;52.040;5.692;2023-05-01T07:02:30;16.50;95.70
25718;DHT22;13574;52.040;5.692;2023-05-01T07:04:56;16.60;95.50
25718;DHT22;13574;52.040;5.692;2023-05-01T07:07:22;16.90;95.60
25718;DHT22;13574;52.040;5.692;2023-05-01T07:09:48;17.20;95.60
25718;DHT22;13574;52.040;5.692;2023-05-01T07:12:13;17.60;94.60
25718;DHT22;13574;52.040;5.692;2023-05-01T07:14:39;17.70;94.50
25718;DHT22;13574;52.040;5.692;2023-05-01T07:17:06;17.80;94.20
25718;DHT22;13574;52.040;5.692;2023-05-01T07:19:33;17.90;93.90
25718;DHT22;13574;52.040;5.692;2023-05-01T07:21:59;17.90;93.90
25718;DHT22;13574;52.040;5.692;2023-05-01T07:24:25;17.90;93.90
25718;DHT22;13574;52.040;5.692;2023-05-01T07:26:50;18.10;93.70
25718;DHT22;13574;52.040;5.692;2023-05-01T07:29:16;18.30;93.70
25718;DHT22;13574;52.040;5.692;2023-05-01T07:31:43;18.50;93.40
25718;DHT22;13574;52.040;5.692;2023-05-01T07:34:08;18.80;93.10
25718;DHT22;13574;52.040;5.692;2023-05-01T07:36:34;18.90;92.80
25718;DHT22;13574;52.040;5.692;2023-05-01T07:39:00;19.00;92.60
25718;DHT22;13574;52.040;5.692;2023-05-01T07:41:26;19.20;92.70
25718;DHT22;13574;52.040;5.692;2023-05-01T07:43:57;19.40;92.70
25718;DHT22;13574;52.040;5.692;2023-05-01T07:46:24;19.90;92.40
25718;DHT22;13574;52.040;5.692;2023-05-01T07:48:52;20.90;91.40
25718;DHT22;13574;52.040;5.692;2023-05-01T07:51:18;22.20;90.40
25718;DHT22;13574;52.040;5.692;2023-05-01T07:53:44;23.60;86.30
25718;DHT22;13574;52.040;5.692;2023-05-01T07:56:11;24.30;84.60
25718;DHT22;13574;52.040;5.692;2023-05-01T07:58:40;24.80;83.50
25718;DHT22;13574;52.040;5.692;2023-05-01T08:01:07;25.50;82.60
25718;DHT22;13574;52.040;5.692;2023-05-01T08:03:33;26.60;81.70
25718;DHT22;13574;52.040;5.692;2023-05-01T08:05:59;27.20;80.00
25718;DHT22;13574;52.040;5.692;2023-05-01T08:08:24;28.30;78.10
25718;DHT22;13574;52.040;5.692;2023-05-01T08:10:53;28.80;74.70
25718;DHT22;13574;52.040;5.692;2023-05-01T08:13:21;28.60;74.00
25718;DHT22;13574;52.040;5.692;2023-05-01T08:15:47;28.80;74.20
25718;DHT22;13574;52.040;5.692;2023-05-01T08:18:13;29.10;74.10
25718;DHT22;13574;52.040;5.692;2023-05-01T08:20:45;29.70;72.40
25718;DHT22;13574;52.040;5.692;2023-05-01T08:23:14;29.80;71.20
25718;DHT22;13574;52.040;5.692;2023-05-01T08:25:40;30.10;71.70
25718;DHT22;13574;52.040;5.692;2023-05-01T08:28:06;30.60;72.80
25718;DHT22;13574;52.040;5.692;2023-05-01T08:30:32;31.30;71.50
25718;DHT22;13574;52.040;5.692;2023-05-01T08:32:58;32.10;70.60
25718;DHT22;13574;52.040;5.692;2023-05-01T08:35:33;32.70;70.60
25718;DHT22;13574;52.040;5.692;2023-05-01T08:37:58;33.60;70.80
25718;DHT22;13574;52.040;5.692;2023-05-01T08:40:31;34.10;65.70
25718;DHT22;13574;52.040;5.692;2023-05-01T08:42:59;33.60;64.30
25718;DHT22;13574;52.040;5.692;2023-05-01T08:45:26;33.10;64.20
25718;DHT22;13574;52.040;5.692;2023-05-01T08:47:53;33.00;63.40
25718;DHT22;13574;52.040;5.692;2023-05-01T08:50:20;32.80;63.80
25718;DHT22;13574;52.040;5.692;2023-05-01T08:52:47;32.20;65.60
25718;DHT22;13574;52.040;5.692;2023-05-01T08:55:15;32.40;67.00
25718;DHT22;13574;52.040;5.692;2023-05-01T08:57:46;32.90;65.50
25718;DHT22;13574;52.040;5.692;2023-05-01T09:00:19;33.30;66.10
25718;DHT22;13574;52.040;5.692;2023-05-01T09:02:46;33.30;63.50
25718;DHT22;13574;52.040;5.692;2023-05-01T09:05:15;33.10;63.30
25718;DHT22;13574;52.040;5.692;2023-05-01T09:07:42;32.90;64.70
25718;DHT22;13574;52.040;5.692;2023-05-01T09:10:15;32.60;65.50
25718;DHT22;13574;52.040;5.692;2023-05-01T09:12:48;31.60;64.50
25718;DHT22;13574;52.040;5.692;2023-05-01T09:15:25;31.10;65.10
25718;DHT22;13574;52.040;5.692;2023-05-01T09:17:52;31.70;65.30
25718;DHT22;13574;52.040;5.692;2023-05-01T09:20:18;31.90;64.80
25718;DHT22;13574;52.040;5.692;2023-05-01T09:22:47;30.80;65.00
25718;DHT22;13574;52.040;5.692;2023-05-01T09:25:15;30.90;66.80
25718;DHT22;13574;52.040;5.692;2023-05-01T09:28:04;30.90;65.80
25718;DHT22;13574;52.040;5.692;2023-05-01T09:30:40;29.40;65.70
25718;DHT22;13574;52.040;5.692;2023-05-01T09:35:51;27.30;71.10
25718;DHT22;13574;52.040;5.692;2023-05-01T09:38:25;27.50;70.80
25718;DHT22;13574;52.040;5.692;2023-05-01T09:40:52;27.60;70.00
25718;DHT22;13574;52.040;5.692;2023-05-01T09:43:28;27.50;70.40
25718;DHT22;13574;52.040;5.692;2023-05-01T09:46:10;27.00;69.30
25718;DHT22;13574;52.040;5.692;2023-05-01T09:48:37;26.40;71.00
25718;DHT22;13574;52.040;5.692;2023-05-01T09:51:30;25.50;71.90
25718;DHT22;13574;52.040;5.692;2023-05-01T09:54:01;25.70;72.80
25718;DHT22;13574;52.040;5.692;2023-05-01T09:56:33;25.30;73.60
25718;DHT22;13574;52.040;5.692;2023-05-01T09:59:23;24.80;74.30
25718;DHT22;13574;52.040;5.692;2023-05-01T10:01:50;24.80;75.70
25718;DHT22;13574;52.040;5.692;2023-05-01T10:04:16;24.40;75.30
25718;DHT22;13574;52.040;5.692;2023-05-01T10:06:42;24.20;77.00
25718;DHT22;13574;52.040;5.692;2023-05-01T10:09:08;24.30;77.90
25718;DHT22;13574;52.040;5.692;2023-05-01T10:11:59;23.80;78.50
25718;DHT22;13574;52.040;5.692;2023-05-01T10:14:25;22.50;81.20
25718;DHT22;13574;52.040;5.692;2023-05-01T10:16:52;22.00;83.10
25718;DHT22;13574;52.040;5.692;2023-05-01T10:19:19;21.50;84.80
25718;DHT22;13574;52.040;5.692;2023-05-01T10:21:44;22.00;85.10
25718;DHT22;13574;52.040;5.692;2023-05-01T10:24:10;22.30;84.20
25718;DHT22;13574;52.040;5.692;2023-05-01T10:26:36;22.80;83.30
25718;DHT22;13574;52.040;5.692;2023-05-01T10:29:07;22.60;83.10
25718;DHT22;13574;52.040;5.692;2023-05-01T10:31:32;23.20;82.80
25718;DHT22;13574;52.040;5.692;2023-05-01T10:34:00;23.90;80.60
25718;DHT22;13574;52.040;5.692;2023-05-01T10:36:33;24.30;79.60
25718;DHT22;13574;52.040;5.692;2023-05-01T10:39:04;23.50;79.90
25718;DHT22;13574;52.040;5.692;2023-05-01T10:44:24;24.50;79.10
25718;DHT22;13574;52.040;5.692;2023-05-01T10:46:51;25.00;78.30
25718;DHT22;13574;52.040;5.692;2023-05-01T10:49:17;25.70;76.70
25718;DHT22;13574;52.040;5.692;2023-05-01T10:52:01;25.50;76.00
25718;DHT22;13574;52.040;5.692;2023-05-01T10:54:29;25.40;76.30
25718;DHT22;13574;52.040;5.692;2023-05-01T10:57:05;24.70;77.40
25718;DHT22;13574;52.040;5.692;2023-05-01T11:02:36;25.40;78.10
25718;DHT22;13574;52.040;5.692;2023-05-01T11:05:04;24.30;77.00
25718;DHT22;13574;52.040;5.692;2023-05-01T11:07:30;24.30;77.70
25718;DHT22;13574;52.040;5.692;2023-05-01T11:09:58;24.60;76.70
25718;DHT22;13574;52.040;5.692;2023-05-01T11:12:47;24.80;77.90
25718;DHT22;13574;52.040;5.692;2023-05-01T11:15:32;25.40;76.50
25718;DHT22;13574;52.040;5.692;2023-05-01T11:17:59;25.40;76.70
25718;DHT22;13574;52.040;5.692;2023-05-01T11:23:00;25.00;76.70
25718;DHT22;13574;52.040;5.692;2023-05-01T11:25:29;25.20;76.10
25718;DHT22;13574;52.040;5.692;2023-05-01T11:28:00;25.50;76.00
25718;DHT22;13574;52.040;5.692;2023-05-01T11:30:36;24.90;76.30
25718;DHT22;13574;52.040;5.692;2023-05-01T11:33:07;24.50;77.00
25718;DHT22;13574;52.040;5.692;2023-05-01T11:35:42;24.30;77.80
25718;DHT22;13574;52.040;5.692;2023-05-01T11:38:16;24.80;76.40
25718;DHT22;13574;52.040;5.692;2023-05-01T11:40:43;25.20;76.60
25718;DHT22;13574;52.040;5.692;2023-05-01T11:43:09;24.90;76.00
25718;DHT22;13574;52.040;5.692;2023-05-01T11:45:36;24.90;76.80
25718;DHT22;13574;52.040;5.692;2023-05-01T11:48:03;25.00;75.70
25718;DHT22;13574;52.040;5.692;2023-05-01T11:53:00;24.80;74.90
25718;DHT22;13574;52.040;5.692;2023-05-01T11:55:33;24.00;76.40
25718;DHT22;13574;52.040;5.692;2023-05-01T11:58:03;23.80;78.40
25718;DHT22;13574;52.040;5.692;2023-05-01T12:00:37;23.80;78.70
25718;DHT22;13574;52.040;5.692;2023-05-01T12:03:06;24.20;79.20
25718;DHT22;13574;52.040;5.692;2023-05-01T12:05:33;24.40;79.80
25718;DHT22;13574;52.040;5.692;2023-05-01T12:10:40;24.60;80.20
25718;DHT22;13574;52.040;5.692;2023-05-01T12:13:08;25.00;79.70
25718;DHT22;13574;52.040;5.692;2023-05-01T12:15:35;24.70;78.60
25718;DHT22;13574;52.040;5.692;2023-05-01T12:18:06;24.40;79.60
25718;DHT22;13574;52.040;5.692;2023-05-01T12:20:40;24.40;81.00
25718;DHT22;13574;52.040;5.692;2023-05-01T12:23:10;24.20;81.60
25718;DHT22;13574;52.040;5.692;2023-05-01T12:25:37;24.40;80.90
25718;DHT22;13574;52.040;5.692;2023-05-01T12:28:11;24.40;79.80
25718;DHT22;13574;52.040;5.692;2023-05-01T12:30:38;23.60;80.30
25718;DHT22;13574;52.040;5.692;2023-05-01T12:33:16;23.80;80.60
25718;DHT22;13574;52.040;5.692;2023-05-01T12:35:48;23.40;79.00
25718;DHT22;13574;52.040;5.692;2023-05-01T12:38:19;23.30;79.80
25718;DHT22;13574;52.040;5.692;2023-05-01T12:40:54;22.80;80.90
25718;DHT22;13574;52.040;5.692;2023-05-01T12:43:31;22.90;80.00
25718;DHT22;13574;52.040;5.692;2023-05-01T12:46:00;23.00;80.70
25718;DHT22;13574;52.040;5.692;2023-05-01T12:48:26;23.20;80.40
25718;DHT22;13574;52.040;5.692;2023-05-01T12:50:52;23.10;78.30
25718;DHT22;13574;52.040;5.692;2023-05-01T12:53:20;22.50;79.60
25718;DHT22;13574;52.040;5.692;2023-05-01T12:55:52;22.30;80.10
25718;DHT22;13574;52.040;5.692;2023-05-01T12:58:23;21.90;78.90
25718;DHT22;13574;52.040;5.692;2023-05-01T13:00:53;22.00;81.50
25718;DHT22;13574;52.040;5.692;2023-05-01T13:03:27;21.80;83.10
25718;DHT22;13574;52.040;5.692;2023-05-01T13:06:01;21.80;85.30
25718;DHT22;13574;52.040;5.692;2023-05-01T13:08:31;22.20;84.20
25718;DHT22;13574;52.040;5.692;2023-05-01T13:11:08;22.00;83.50
25718;DHT22;13574;52.040;5.692;2023-05-01T13:13:43;21.70;84.70
25718;DHT22;13574;52.040;5.692;2023-05-01T13:16:13;21.60;86.40
25718;DHT22;13574;52.040;5.692;2023-05-01T13:18:49;21.60;85.20
25718;DHT22;13574;52.040;5.692;2023-05-01T13:21:22;21.60;87.40
25718;DHT22;13574;52.040;5.692;2023-05-01T13:26:28;21.40;87.50
25718;DHT22;13574;52.040;5.692;2023-05-01T13:28:56;21.80;87.90
25718;DHT22;13574;52.040;5.692;2023-05-01T13:31:25;22.00;87.60
25718;DHT22;13574;52.040;5.692;2023-05-01T13:33:54;21.80;86.50
25718;DHT22;13574;52.040;5.692;2023-05-01T13:36:22;21.50;86.70
25718;DHT22;13574;52.040;5.692;2023-05-01T13:38:55;21.80;88.20
25718;DHT22;13574;52.040;5.692;2023-05-01T13:41:22;22.30;86.60
25718;DHT22;13574;52.040;5.692;2023-05-01T13:43:49;22.60;87.20
25718;DHT22;13574;52.040;5.692;2023-05-01T13:46:17;22.80;85.70
25718;DHT22;13574;52.040;5.692;2023-05-01T13:48:44;22.70;84.70
25718;DHT22;13574;52.040;5.692;2023-05-01T13:51:14;22.30;86.50
25718;DHT22;13574;52.040;5.692;2023-05-01T13:53:46;22.40;85.90
25718;DHT22;13574;52.040;5.692;2023-05-01T13:56:12;22.20;85.70
25718;DHT22;13574;52.040;5.692;2023-05-01T13:58:40;22.10;87.00
25718;DHT22;13574;52.040;5.692;2023-05-01T14:01:17;22.10;86.20
25718;DHT22;13574;52.040;5.692;2023-05-01T14:03:46;21.90;86.30
25718;DHT22;13574;52.040;5.692;2023-05-01T14:06:19;22.00;87.80
25718;DHT22;13574;52.040;5.692;2023-05-01T14:08:46;22.20;87.70
25718;DHT22;13574;52.040;5.692;2023-05-01T14:11:13;22.30;88.20
25718;DHT22;13574;52.040;5.692;2023-05-01T14:13:40;22.30;87.80
25718;DHT22;13574;52.040;5.692;2023-05-01T14:16:09;22.10;87.90
25718;DHT22;13574;52.040;5.692;2023-05-01T14:18:41;21.90;89.20
25718;DHT22;13574;52.040;5.692;2023-05-01T14:21:17;21.80;90.40
25718;DHT22;13574;52.040;5.692;2023-05-01T14:23:43;21.40;90.70
25718;DHT22;13574;52.040;5.692;2023-05-01T14:26:10;21.40;91.80
25718;DHT22;13574;52.040;5.692;2023-05-01T14:28:42;21.60;91.90
25718;DHT22;13574;52.040;5.692;2023-05-01T14:31:14;21.80;91.70
25718;DHT22;13574;52.040;5.692;2023-05-01T14:33:43;22.10;91.40
25718;DHT22;13574;52.040;5.692;2023-05-01T14:36:11;21.70;90.40
25718;DHT22;13574;52.040;5.692;2023-05-01T14:38:38;21.20;91.20
25718;DHT22;13574;52.040;5.692;2023-05-01T14:41:05;20.90;91.80
25718;DHT22;13574;52.040;5.692;2023-05-01T14:43:32;21.40;91.70
25718;DHT22;13574;52.040;5.692;2023-05-01T14:46:00;21.80;91.40
25718;DHT22;13574;52.040;5.692;2023-05-01T14:48:35;21.80;91.00
25718;DHT22;13574;52.040;5.692;2023-05-01T14:51:03;21.60;91.30
25718;DHT22;13574;52.040;5.692;2023-05-01T14:53:33;21.80;91.40
25718;DHT22;13574;52.040;5.692;2023-05-01T14:55:59;21.70;91.30
25718;DHT22;13574;52.040;5.692;2023-05-01T14:58:32;21.80;91.20
25718;DHT22;13574;52.040;5.692;2023-05-01T15:01:00;21.60;91.10
25718;DHT22;13574;52.040;5.692;2023-05-01T15:03:29;21.80;91.30
25718;DHT22;13574;52.040;5.692;2023-05-01T15:05:55;22.00;90.80
25718;DHT22;13574;52.040;5.692;2023-05-01T15:08:22;22.10;90.60
25718;DHT22;13574;52.040;5.692;2023-05-01T15:10:56;21.70;91.20
25718;DHT22;13574;52.040;5.692;2023-05-01T15:13:25;22.40;91.10
25718;DHT22;13574;52.040;5.692;2023-05-01T15:15:51;22.30;90.10
25718;DHT22;13574;52.040;5.692;2023-05-01T15:18:33;21.90;90.20
25718;DHT22;13574;52.040;5.692;2023-05-01T15:21:03;21.70;89.70
25718;DHT22;13574;52.040;5.692;2023-05-01T15:23:29;21.60;87.80
25718;DHT22;13574;52.040;5.692;2023-05-01T15:25:56;21.40;88.40
25718;DHT22;13574;52.040;5.692;2023-05-01T15:28:23;21.50;89.10
25718;DHT22;13574;52.040;5.692;2023-05-01T15:30:50;21.50;87.90
25718;DHT22;13574;52.040;5.692;2023-05-01T15:33:16;21.80;87.70
25718;DHT22;13574;52.040;5.692;2023-05-01T15:35:43;22.10;86.80
25718;DHT22;13574;52.040;5.692;2023-05-01T15:38:10;22.20;87.30
25718;DHT22;13574;52.040;5.692;2023-05-01T15:40:35;22.20;86.80
25718;DHT22;13574;52.040;5.692;2023-05-01T15:43:03;22.00;86.10
25718;DHT22;13574;52.040;5.692;2023-05-01T15:45:33;21.30;88.40
25718;DHT22;13574;52.040;5.692;2023-05-01T15:47:59;21.00;89.20
25718;DHT22;13574;52.040;5.692;2023-05-01T15:50:25;20.90;89.70
25718;DHT22;13574;52.040;5.692;2023-05-01T15:52:52;20.80;90.00
25718;DHT22;13574;52.040;5.692;2023-05-01T15:55:18;20.60;89.80
25718;DHT22;13574;52.040;5.692;2023-05-01T15:57:44;20.00;90.40
25718;DHT22;13574;52.040;5.692;2023-05-01T16:00:11;20.20;90.80
25718;DHT22;13574;52.040;5.692;2023-05-01T16:02:39;20.30;90.80
25718;DHT22;13574;52.040;5.692;2023-05-01T16:05:05;20.40;90.90
25718;DHT22;13574;52.040;5.692;2023-05-01T16:07:32;20.50;90.70
25718;DHT22;13574;52.040;5.692;2023-05-01T16:09:58;20.60;90.70
25718;DHT22;13574;52.040;5.692;2023-05-01T16:12:27;20.50;90.20
25718;DHT22;13574;52.040;5.692;2023-05-01T16:14:55;20.60;90.40